createdAt,value
2022-10-01T00:00:35.827Z,33.50
2022-10-01T00:03:26.505Z,27.70
2022-10-01T00:06:02.603Z,32.50
2022-10-01T00:08:33.850Z,32.60
2022-10-01T00:11:07.036Z,26.90
2022-10-01T00:13:36.614Z,31.10
2022-10-01T00:16:10.464Z,35.00
2022-10-01T00:18:40.291Z,36.60
2022-10-01T00:21:11.182Z,32.90
2022-10-01T00:23:40.271Z,28.30
2022-10-01T00:26:14.952Z,28.30
2022-10-01T00:28:45.795Z,33.60
2022-10-01T00:31:16.453Z,31.80
2022-10-01T00:33:48.139Z,32.40
2022-10-01T00:36:17.077Z,37.90
2022-10-01T00:38:46.558Z,42.60
2022-10-01T00:41:17.130Z,36.80
2022-10-01T00:43:47.681Z,40.60
2022-10-01T00:46:22.411Z,35.10
2022-10-01T00:48:57.654Z,37.20
2022-10-01T00:51:31.217Z,37.50
2022-10-01T00:54:08.197Z,33.90
2022-10-01T00:56:38.092Z,40.20
2022-10-01T00:59:07.199Z,37.80
2022-10-01T01:01:38.349Z,42.10
2022-10-01T01:04:15.727Z,39.80
2022-10-01T01:06:46.765Z,40.90
2022-10-01T01:09:16.544Z,38.60
2022-10-01T01:11:54.382Z,32.10
2022-10-01T01:14:32.341Z,37.70
2022-10-01T01:17:08.304Z,39.10
2022-10-01T01:19:54.222Z,36.80
2022-10-01T01:22:26.316Z,38.40
2022-10-01T01:25:02.792Z,33.50
2022-10-01T01:27:37.864Z,34.50
2022-10-01T01:30:08.837Z,32.40
2022-10-01T01:32:46.338Z,33.30
2022-10-01T01:35:23.273Z,32.90
2022-10-01T01:38:01.420Z,37.40
2022-10-01T01:43:10.692Z,31.70
2022-10-01T01:45:42.110Z,37.50
2022-10-01T01:48:12.648Z,34.50
2022-10-01T01:50:48.918Z,37.60
2022-10-01T01:53:17.510Z,40.30
2022-10-01T01:55:49.005Z,40.30
2022-10-01T01:58:19.388Z,39.00
2022-10-01T02:00:52.552Z,38.70
2022-10-01T02:03:23.729Z,36.30
2022-10-01T02:06:00.742Z,39.80
2022-10-01T02:08:40.553Z,39.80
2022-10-01T02:11:19.773Z,39.20
2022-10-01T02:14:00.319Z,42.90
2022-10-01T02:16:41.758Z,38.40
2022-10-01T02:19:19.722Z,40.20
2022-10-01T02:21:57.546Z,37.90
2022-10-01T02:24:36.282Z,39.70
2022-10-01T02:27:13.914Z,38.90
2022-10-01T02:29:45.121Z,40.20
2022-10-01T02:32:17.217Z,44.20
2022-10-01T02:34:47.568Z,40.50
2022-10-01T02:37:24.412Z,44.80
2022-10-01T02:39:54.744Z,46.50
2022-10-01T02:42:28.520Z,44.70
2022-10-01T02:45:03.023Z,39.70
2022-10-01T02:47:37.251Z,43.00
2022-10-01T02:50:08.412Z,49.20
2022-10-01T02:52:42.803Z,44.60
2022-10-01T02:55:14.779Z,48.60
2022-10-01T02:57:43.810Z,48.90
2022-10-01T03:00:15.859Z,41.60
2022-10-01T03:02:44.456Z,42.40
2022-10-01T03:05:14.199Z,43.80
2022-10-01T03:07:43.230Z,46.50
2022-10-01T03:10:14.634Z,43.40
2022-10-01T03:12:45.954Z,47.20
2022-10-01T03:15:18.798Z,44.90
2022-10-01T03:17:51.294Z,42.60
2022-10-01T03:20:21.610Z,44.60
2022-10-01T03:22:50.075Z,43.80
2022-10-01T03:25:20.558Z,45.60
2022-10-01T03:27:58.059Z,42.20
2022-10-01T03:30:26.771Z,47.80
2022-10-01T03:32:58.329Z,38.00
2022-10-01T03:35:26.872Z,38.40
2022-10-01T03:37:58.067Z,37.70
2022-10-01T03:40:26.550Z,45.60
2022-10-01T03:42:56.514Z,45.50
2022-10-01T03:45:26.511Z,45.90
2022-10-01T03:47:55.215Z,41.60
2022-10-01T03:50:24.325Z,46.50
2022-10-01T03:52:52.962Z,37.70
2022-10-01T03:55:21.535Z,42.70
2022-10-01T03:57:52.753Z,40.50
2022-10-01T04:00:22.150Z,43.90
2022-10-01T04:02:51.192Z,43.00
2022-10-01T04:05:19.976Z,46.20
2022-10-01T04:07:49.476Z,40.80
2022-10-01T04:10:18.712Z,44.30
2022-10-01T04:12:47.257Z,39.20
2022-10-01T04:15:16.353Z,43.10
2022-10-01T04:17:47.158Z,35.10
2022-10-01T04:20:16.093Z,44.80
2022-10-01T04:22:45.670Z,39.70
2022-10-01T04:25:14.502Z,39.40
2022-10-01T04:27:55.761Z,36.90
2022-10-01T04:30:26.644Z,43.80
2022-10-01T04:32:55.483Z,46.40
2022-10-01T04:35:25.215Z,41.50
2022-10-01T04:38:02.855Z,41.20
2022-10-01T04:40:35.375Z,36.30
2022-10-01T04:43:05.089Z,45.70
2022-10-01T04:45:33.863Z,36.50
2022-10-01T04:48:02.780Z,38.00
2022-10-01T04:50:33.370Z,43.60
2022-10-01T04:53:02.101Z,46.00
2022-10-01T04:55:32.868Z,51.70
2022-10-01T04:58:02.441Z,53.90
2022-10-01T05:00:33.823Z,49.30
2022-10-01T05:03:03.093Z,46.40
2022-10-01T05:05:34.331Z,48.40
2022-10-01T05:08:03.538Z,40.90
2022-10-01T05:10:33.423Z,44.60
2022-10-01T05:13:03.689Z,39.60
2022-10-01T05:15:33.104Z,45.80
2022-10-01T05:18:01.757Z,50.30
2022-10-01T05:20:33.656Z,49.40
2022-10-01T05:23:02.285Z,51.00
2022-10-01T05:25:36.780Z,45.90
2022-10-01T05:28:10.329Z,45.40
2022-10-01T05:30:40.046Z,48.90
2022-10-01T05:33:11.597Z,50.40
2022-10-01T05:35:41.347Z,53.70
2022-10-01T05:38:10.275Z,46.80
2022-10-01T05:40:39.775Z,40.20
2022-10-01T05:43:08.941Z,46.40
2022-10-01T05:45:37.379Z,47.50
2022-10-01T05:48:08.174Z,54.10
2022-10-01T05:50:39.711Z,51.60
2022-10-01T05:53:10.850Z,51.50
2022-10-01T05:55:39.139Z,44.90
2022-10-01T05:58:09.833Z,40.90
2022-10-01T06:00:39.547Z,45.90
2022-10-01T06:03:11.961Z,39.90
2022-10-01T06:05:43.715Z,42.60
2022-10-01T06:08:12.399Z,41.20
2022-10-01T06:10:41.305Z,40.70
2022-10-01T06:13:09.979Z,43.40
2022-10-01T06:15:39.480Z,44.70
2022-10-01T06:18:10.432Z,41.90
2022-10-01T06:20:40.290Z,44.00
2022-10-01T06:23:11.993Z,40.70
2022-10-01T06:25:42.233Z,39.80
2022-10-01T06:28:15.034Z,40.90
2022-10-01T06:30:43.480Z,38.80
2022-10-01T06:33:14.181Z,37.60
2022-10-01T06:35:43.897Z,32.40
2022-10-01T06:38:13.102Z,36.40
2022-10-01T06:40:42.277Z,41.30
2022-10-01T06:43:10.772Z,41.50
2022-10-01T06:45:41.962Z,40.40
2022-10-01T06:48:13.426Z,41.00
2022-10-01T06:50:43.052Z,44.70
2022-10-01T06:53:14.083Z,36.10
2022-10-01T06:55:43.198Z,35.20
2022-10-01T06:58:14.766Z,42.60
2022-10-01T07:00:43.978Z,39.70
2022-10-01T07:03:16.399Z,40.20
2022-10-01T07:05:45.495Z,46.70
2022-10-01T07:08:14.275Z,45.70
2022-10-01T07:10:43.559Z,55.40
2022-10-01T07:13:14.063Z,42.10
2022-10-01T07:15:43.574Z,43.60
2022-10-01T07:18:12.598Z,39.40
2022-10-01T07:20:44.282Z,38.70
2022-10-01T07:23:16.701Z,38.80
2022-10-01T07:25:45.485Z,36.40
2022-10-01T07:28:17.395Z,34.50
2022-10-01T07:30:48.127Z,32.30
2022-10-01T07:33:20.298Z,30.80
2022-10-01T07:35:49.216Z,33.50
2022-10-01T07:38:17.504Z,32.90
2022-10-01T07:40:51.700Z,30.60
2022-10-01T07:43:20.203Z,30.90
2022-10-01T07:45:51.833Z,33.70
2022-10-01T07:48:22.551Z,28.10
2022-10-01T07:50:51.568Z,27.10
2022-10-01T07:53:20.020Z,25.90
2022-10-01T07:55:48.400Z,23.80
2022-10-01T07:58:17.365Z,26.60
2022-10-01T08:00:45.935Z,24.60
2022-10-01T08:03:14.607Z,28.20
2022-10-01T08:05:46.230Z,25.80
2022-10-01T08:08:15.334Z,25.60
2022-10-01T08:10:44.466Z,25.10
2022-10-01T08:13:15.846Z,27.20
2022-10-01T08:15:52.737Z,23.40
2022-10-01T08:18:23.778Z,23.40
2022-10-01T08:20:52.293Z,24.20
2022-10-01T08:23:21.398Z,23.50
2022-10-01T08:25:50.379Z,28.70
2022-10-01T08:28:19.162Z,27.50
2022-10-01T08:30:48.051Z,22.80
2022-10-01T08:33:24.692Z,25.90
2022-10-01T08:35:53.400Z,23.60
2022-10-01T08:38:22.493Z,22.20
2022-10-01T08:40:52.111Z,26.40
2022-10-01T08:43:33.160Z,26.00
2022-10-01T08:46:05.392Z,23.20
2022-10-01T08:48:47.633Z,24.70
2022-10-01T08:51:25.479Z,24.40
2022-10-01T08:54:00.945Z,25.80
2022-10-01T08:56:34.999Z,25.30
2022-10-01T08:59:16.587Z,25.50
2022-10-01T09:01:45.122Z,22.60
2022-10-01T09:04:13.614Z,23.70
2022-10-01T09:06:44.693Z,28.00
2022-10-01T09:09:37.136Z,21.60
2022-10-01T09:12:20.625Z,21.80
2022-10-01T09:15:15.169Z,20.80
2022-10-01T09:18:02.004Z,14.80
2022-10-01T09:20:36.446Z,21.10
2022-10-01T09:23:18.302Z,19.70
2022-10-01T09:25:50.152Z,18.10
2022-10-01T09:28:22.225Z,16.90
2022-10-01T09:30:56.388Z,21.60
2022-10-01T09:33:33.016Z,22.80
2022-10-01T09:36:13.111Z,25.40
2022-10-01T09:38:43.835Z,21.40
2022-10-01T09:41:14.216Z,22.50
2022-10-01T09:43:44.608Z,23.40
2022-10-01T09:46:16.667Z,21.30
2022-10-01T09:48:56.064Z,20.80
2022-10-01T09:51:29.453Z,19.70
2022-10-01T09:54:03.779Z,16.50
2022-10-01T09:56:41.793Z,20.90
2022-10-01T09:59:17.234Z,18.80
2022-10-01T10:01:49.745Z,18.40
2022-10-01T10:04:20.842Z,17.70
2022-10-01T10:06:50.157Z,17.80
2022-10-01T10:09:26.127Z,19.70
2022-10-01T10:11:56.118Z,17.90
2022-10-01T10:14:31.780Z,18.40
2022-10-01T10:17:05.844Z,16.80
2022-10-01T10:19:34.963Z,19.20
2022-10-01T10:22:13.313Z,15.40
2022-10-01T10:24:46.310Z,16.60
2022-10-01T10:27:26.272Z,16.90
2022-10-01T10:30:08.477Z,15.20
2022-10-01T10:32:37.198Z,15.30
2022-10-01T10:35:12.826Z,14.80
2022-10-01T10:37:48.734Z,14.90
2022-10-01T10:40:20.339Z,17.30
2022-10-01T10:42:50.640Z,17.70
2022-10-01T10:45:30.419Z,19.30
2022-10-01T10:47:59.400Z,17.30
2022-10-01T10:50:33.484Z,16.40
2022-10-01T10:53:19.256Z,15.00
2022-10-01T10:55:56.042Z,13.90
2022-10-01T10:58:28.289Z,17.10
2022-10-01T11:01:01.102Z,15.70
2022-10-01T11:03:32.575Z,12.20
2022-10-01T11:06:11.089Z,10.90
2022-10-01T11:08:41.054Z,10.90
2022-10-01T11:11:27.225Z,10.90
2022-10-01T11:14:07.833Z,12.00
2022-10-01T11:17:04.489Z,12.60
2022-10-01T11:19:51.806Z,14.30
2022-10-01T11:22:35.885Z,15.10
2022-10-01T11:25:25.315Z,14.10
2022-10-01T11:28:03.219Z,13.40
2022-10-01T11:30:41.678Z,12.10
2022-10-01T11:33:22.818Z,16.70
2022-10-01T11:36:01.258Z,15.90
2022-10-01T11:38:50.041Z,13.90
2022-10-01T11:43:54.267Z,9.70
2022-10-01T11:46:48.185Z,10.80
2022-10-01T11:49:31.495Z,9.10
2022-10-01T11:52:08.936Z,7.70
2022-10-01T11:54:56.077Z,7.50
2022-10-01T11:57:44.429Z,6.90
2022-10-01T12:00:15.350Z,6.10
2022-10-01T12:02:52.549Z,6.00
2022-10-01T12:05:25.786Z,6.80
2022-10-01T12:07:58.990Z,6.80
2022-10-01T12:10:38.757Z,7.00
2022-10-01T12:13:16.287Z,5.30
2022-10-01T12:15:49.047Z,5.80
2022-10-01T12:18:25.275Z,7.40
2022-10-01T12:20:57.513Z,4.80
2022-10-01T12:23:32.396Z,7.40
2022-10-01T12:26:13.394Z,4.80
2022-10-01T12:28:55.580Z,5.90
2022-10-01T12:31:33.286Z,5.40
2022-10-01T12:34:13.082Z,6.30
2022-10-01T12:36:53.754Z,5.00
2022-10-01T12:39:34.633Z,5.60
2022-10-01T12:42:30.758Z,6.00
2022-10-01T12:45:09.889Z,5.90
2022-10-01T12:47:47.789Z,5.70
2022-10-01T12:50:26.575Z,6.30
2022-10-01T12:53:24.180Z,6.10
2022-10-01T12:56:12.469Z,5.70
2022-10-01T12:58:54.468Z,6.70
2022-10-01T13:01:36.003Z,5.00
2022-10-01T13:04:48.744Z,6.20
2022-10-01T13:07:33.250Z,6.10
2022-10-01T13:10:15.244Z,6.30
2022-10-01T13:13:01.761Z,6.20
2022-10-01T13:15:34.520Z,4.90
2022-10-01T13:18:12.329Z,8.40
2022-10-01T13:20:53.610Z,8.90
2022-10-01T13:23:30.902Z,7.50
2022-10-01T13:26:08.406Z,7.70
2022-10-01T13:28:54.398Z,5.80
2022-10-01T13:31:35.988Z,7.50
2022-10-01T13:34:35.548Z,7.00
2022-10-01T13:37:18.258Z,9.50
2022-10-01T13:39:50.421Z,6.60
2022-10-01T13:42:25.556Z,6.80
2022-10-01T13:44:59.287Z,6.80
2022-10-01T13:47:28.368Z,7.30
2022-10-01T13:50:03.080Z,7.90
2022-10-01T13:52:33.213Z,8.70
2022-10-01T13:55:02.427Z,7.70
2022-10-01T13:57:34.542Z,7.80
2022-10-01T14:00:21.029Z,7.90
2022-10-01T14:03:04.842Z,9.40
2022-10-01T14:05:38.353Z,9.20
2022-10-01T14:08:16.639Z,8.60
2022-10-01T14:11:09.535Z,9.60
2022-10-01T14:14:06.618Z,8.40
2022-10-01T14:16:40.245Z,6.50
2022-10-01T14:19:10.147Z,9.40
2022-10-01T14:21:58.554Z,9.60
2022-10-01T14:24:40.806Z,9.30
2022-10-01T14:27:18.944Z,8.70
2022-10-01T14:30:00.491Z,9.00
2022-10-01T14:32:38.370Z,9.10
2022-10-01T14:35:23.027Z,8.70
2022-10-01T14:37:56.952Z,7.60
2022-10-01T14:40:31.888Z,11.30
2022-10-01T14:43:03.638Z,10.20
2022-10-01T14:45:35.374Z,12.40
2022-10-01T14:48:09.595Z,12.50
2022-10-01T14:50:39.560Z,15.60
2022-10-01T14:53:17.680Z,16.80
2022-10-01T14:55:47.993Z,14.20
2022-10-01T14:58:26.519Z,15.40
2022-10-01T15:00:57.167Z,12.40
2022-10-01T15:03:26.166Z,14.40
2022-10-01T15:06:03.640Z,12.90
2022-10-01T15:08:40.455Z,13.20
2022-10-01T15:11:13.915Z,15.00
2022-10-01T15:13:44.535Z,15.50
2022-10-01T15:16:16.414Z,15.30
2022-10-01T15:18:49.972Z,15.10
2022-10-01T15:21:23.034Z,13.40
2022-10-01T15:23:55.074Z,13.40
2022-10-01T15:26:27.034Z,13.40
2022-10-01T15:29:03.531Z,14.60
2022-10-01T15:31:37.368Z,14.70
2022-10-01T15:34:10.714Z,15.00
2022-10-01T15:36:41.570Z,17.30
2022-10-01T15:39:25.062Z,17.30
2022-10-01T15:41:54.380Z,15.80
2022-10-01T15:44:45.984Z,19.40
2022-10-01T15:47:35.394Z,15.30
2022-10-01T15:50:18.665Z,16.40
2022-10-01T15:52:51.638Z,15.50
2022-10-01T15:55:27.394Z,14.50
2022-10-01T15:58:01.574Z,14.80
2022-10-01T16:00:37.761Z,15.20
2022-10-01T16:03:09.692Z,18.30
2022-10-01T16:05:47.872Z,18.10
2022-10-01T16:08:22.344Z,18.20
2022-10-01T16:11:16.017Z,18.20
2022-10-01T16:13:46.287Z,18.30
2022-10-01T16:16:28.164Z,19.70
2022-10-01T16:19:19.735Z,23.00
2022-10-01T16:22:14.433Z,23.60
2022-10-01T16:24:48.971Z,17.40
2022-10-01T16:27:20.177Z,18.90
2022-10-01T16:30:05.110Z,19.10
2022-10-01T16:32:35.457Z,18.00
2022-10-01T16:35:18.489Z,19.90
2022-10-01T16:37:49.635Z,17.90
2022-10-01T16:40:19.862Z,21.70
2022-10-01T16:42:50.011Z,19.00
2022-10-01T16:45:22.349Z,21.30
2022-10-01T16:47:52.724Z,21.30
2022-10-01T16:50:22.791Z,17.20
2022-10-01T16:52:54.002Z,17.90
2022-10-01T16:55:24.682Z,23.20
2022-10-01T16:57:54.394Z,26.30
2022-10-01T17:00:36.793Z,27.80
2022-10-01T17:03:09.302Z,25.10
2022-10-01T17:05:39.101Z,23.70
2022-10-01T17:08:11.082Z,23.70
2022-10-01T17:10:43.468Z,21.80
2022-10-01T17:13:14.266Z,23.00
2022-10-01T17:15:43.612Z,20.90
2022-10-01T17:18:13.193Z,22.90
2022-10-01T17:20:42.366Z,21.80
2022-10-01T17:23:12.575Z,23.00
2022-10-01T17:25:42.505Z,43.40
2022-10-01T17:28:19.295Z,36.40
2022-10-01T17:30:49.818Z,25.70
2022-10-01T17:33:20.018Z,25.10
2022-10-01T17:35:51.185Z,22.90
2022-10-01T17:38:22.657Z,26.20
2022-10-01T17:40:56.364Z,29.80
2022-10-01T17:43:26.318Z,28.10
2022-10-01T17:46:00.442Z,24.50
2022-10-01T17:48:30.919Z,26.90
2022-10-01T17:51:01.653Z,22.20
2022-10-01T17:53:39.733Z,27.90
2022-10-01T17:56:14.757Z,26.10
2022-10-01T17:58:45.877Z,24.40
2022-10-01T18:01:20.491Z,25.20
2022-10-01T18:03:55.731Z,30.10
2022-10-01T18:06:25.316Z,29.40
2022-10-01T18:08:56.252Z,31.60
2022-10-01T18:11:27.943Z,28.80
2022-10-01T18:13:59.795Z,28.00
2022-10-01T18:21:19.969Z,36.10
2022-10-01T18:23:48.645Z,34.00
2022-10-01T18:26:18.491Z,35.90
2022-10-01T18:28:47.605Z,33.30
2022-10-01T18:31:22.742Z,32.80
2022-10-01T18:33:53.655Z,28.20
2022-10-01T18:36:31.680Z,28.40
2022-10-01T18:39:17.190Z,29.10
2022-10-01T18:41:46.582Z,32.50
2022-10-01T18:44:20.318Z,30.50
2022-10-01T18:47:14.313Z,28.00
2022-10-01T18:50:07.008Z,29.60
2022-10-01T18:52:47.341Z,26.60
2022-10-01T18:55:40.433Z,31.70
2022-10-01T18:58:28.734Z,29.60
2022-10-01T19:01:06.364Z,28.90
2022-10-01T19:04:00.387Z,29.90
2022-10-01T19:06:55.226Z,31.20
2022-10-01T19:09:56.212Z,33.30
2022-10-01T19:12:38.964Z,25.70
2022-10-01T19:15:20.042Z,25.50
2022-10-01T19:17:57.065Z,26.70
2022-10-01T19:20:46.191Z,26.90
2022-10-01T19:23:49.939Z,30.30
2022-10-01T19:26:29.103Z,41.70
2022-10-01T19:29:18.312Z,44.50
2022-10-01T19:31:54.022Z,52.60
2022-10-01T19:34:30.738Z,52.00
2022-10-01T19:37:05.970Z,42.70
2022-10-01T19:39:38.981Z,48.70
2022-10-01T19:42:14.030Z,40.20
2022-10-01T19:44:48.979Z,37.70
2022-10-01T19:47:28.341Z,38.80
2022-10-01T19:50:12.089Z,40.90
2022-10-01T19:52:45.106Z,44.40
2022-10-01T19:55:17.017Z,43.50
2022-10-01T19:57:46.665Z,42.40
2022-10-01T20:00:19.157Z,46.10
2022-10-01T20:02:54.172Z,45.40
2022-10-01T20:05:30.315Z,41.30
2022-10-01T20:08:08.856Z,38.60
2022-10-01T20:10:48.751Z,44.40
2022-10-01T20:13:33.380Z,43.00
2022-10-01T20:16:12.048Z,44.60
2022-10-01T20:18:51.011Z,43.70
2022-10-01T20:21:31.296Z,50.10
2022-10-01T20:24:10.340Z,44.90
2022-10-01T20:26:46.414Z,40.60
2022-10-01T20:29:26.341Z,43.90
2022-10-01T20:32:02.589Z,38.30
2022-10-01T20:34:44.307Z,38.00
2022-10-01T20:37:39.758Z,40.90
2022-10-01T20:40:18.522Z,43.20
2022-10-01T20:42:50.915Z,45.30
2022-10-01T20:45:24.731Z,40.00
2022-10-01T20:47:58.267Z,44.70
2022-10-01T20:50:34.698Z,40.40
2022-10-01T20:53:15.290Z,38.70
2022-10-01T20:55:49.210Z,43.20
2022-10-01T20:58:23.427Z,42.90
2022-10-01T21:00:59.915Z,43.50
2022-10-01T21:03:34.359Z,41.60
2022-10-01T21:06:10.623Z,45.80
2022-10-01T21:08:47.371Z,48.10
2022-10-01T21:11:26.524Z,43.40
2022-10-01T21:14:04.661Z,32.80
2022-10-01T21:16:51.157Z,37.40
2022-10-01T21:19:39.882Z,32.80
2022-10-01T21:24:55.974Z,28.20
2022-10-01T21:27:45.429Z,26.00
2022-10-01T21:30:20.987Z,24.30
2022-10-01T21:33:17.902Z,23.10
2022-10-01T21:35:53.730Z,21.30
2022-10-01T21:38:39.169Z,20.70
2022-10-01T21:41:27.257Z,15.40
2022-10-01T21:44:18.964Z,19.30
2022-10-01T21:46:55.017Z,19.60
2022-10-01T21:49:36.726Z,17.60
2022-10-01T21:52:18.800Z,14.00
2022-10-01T21:55:15.546Z,13.10
2022-10-01T21:58:07.991Z,13.40
2022-10-01T22:00:36.507Z,10.90
2022-10-01T22:03:19.953Z,12.00
2022-10-01T22:05:57.267Z,12.20
2022-10-01T22:08:43.517Z,12.00
2022-10-01T22:11:17.343Z,9.20
2022-10-01T22:13:51.022Z,11.40
2022-10-01T22:16:22.136Z,9.30
2022-10-01T22:18:55.745Z,10.70
2022-10-01T22:21:34.153Z,9.60
2022-10-01T22:26:39.494Z,11.50
2022-10-01T22:29:14.503Z,9.60
2022-10-01T22:31:46.157Z,8.30
2022-10-01T22:34:19.927Z,13.60
2022-10-01T22:36:54.414Z,10.40
2022-10-01T22:39:26.971Z,11.00
2022-10-01T22:42:04.715Z,9.80
2022-10-01T22:44:33.649Z,8.60
2022-10-01T22:47:31.227Z,9.30
2022-10-01T22:50:17.001Z,6.50
2022-10-01T22:53:03.162Z,8.30
2022-10-01T22:55:47.700Z,11.80
2022-10-01T22:58:31.873Z,8.60
2022-10-01T23:01:06.433Z,10.60
2022-10-01T23:03:49.563Z,9.70
2022-10-01T23:06:27.973Z,7.30
2022-10-01T23:09:03.526Z,7.10
2022-10-01T23:11:46.293Z,9.30
2022-10-01T23:14:32.015Z,8.00
2022-10-01T23:17:06.751Z,7.30
2022-10-01T23:19:46.907Z,23.30
2022-10-01T23:22:32.901Z,6.20
2022-10-01T23:25:20.134Z,8.30
2022-10-01T23:28:06.385Z,6.60
2022-10-01T23:30:47.891Z,7.20
2022-10-01T23:33:43.111Z,7.70
2022-10-01T23:36:27.364Z,7.10
2022-10-01T23:39:38.708Z,8.60
2022-10-01T23:42:17.155Z,6.00
2022-10-01T23:44:51.650Z,11.30
2022-10-01T23:47:25.603Z,9.80
2022-10-01T23:49:59.718Z,8.40
2022-10-01T23:52:36.930Z,7.70
2022-10-01T23:55:33.646Z,7.70
2022-10-01T23:58:03.770Z,8.40
